sensor_id;sensor_type;location;lat;lon;timestamp;pressure;altitude;pressure_sealevel;temperature
73937;BMP180;59249;59.736;30.568;2023-12-14T00:02:16;100738.00;;;-2.40
73937;BMP180;59249;59.736;30.568;2023-12-14T00:04:46;100736.00;;;-2.40
73937;BMP180;59249;59.736;30.568;2023-12-14T00:07:16;100744.00;;;-2.30
73937;BMP180;59249;59.736;30.568;2023-12-14T00:09:53;100747.00;;;-2.40
73937;BMP180;59249;59.736;30.568;2023-12-14T00:12:27;100741.00;;;-2.40
73937;BMP180;59249;59.736;30.568;2023-12-14T00:15:06;100748.00;;;-2.40
73937;BMP180;59249;59.736;30.568;2023-12-14T00:17:39;100747.00;;;-2.50
73937;BMP180;59249;59.736;30.568;2023-12-14T00:20:09;100758.00;;;-2.40
73937;BMP180;59249;59.736;30.568;2023-12-14T00:22:39;100758.00;;;-2.40
73937;BMP180;59249;59.736;30.568;2023-12-14T00:25:10;100757.00;;;-2.50
73937;BMP180;59249;59.736;30.568;2023-12-14T00:27:38;100765.00;;;-2.40
73937;BMP180;59249;59.736;30.568;2023-12-14T00:30:09;100759.00;;;-2.40
73937;BMP180;59249;59.736;30.568;2023-12-14T00:32:40;100768.00;;;-2.50
73937;BMP180;59249;59.736;30.568;2023-12-14T00:35:15;100766.00;;;-2.50
73937;BMP180;59249;59.736;30.568;2023-12-14T00:37:46;100768.00;;;-2.50
73937;BMP180;59249;59.736;30.568;2023-12-14T00:40:16;100780.00;;;-2.40
73937;BMP180;59249;59.736;30.568;2023-12-14T00:42:46;100776.00;;;-2.50
73937;BMP180;59249;59.736;30.568;2023-12-14T00:45:15;100771.00;;;-2.50
73937;BMP180;59249;59.736;30.568;2023-12-14T00:47:46;100782.00;;;-2.50
73937;BMP180;59249;59.736;30.568;2023-12-14T00:50:15;100778.00;;;-2.50
73937;BMP180;59249;59.736;30.568;2023-12-14T00:52:45;100778.00;;;-2.40
73937;BMP180;59249;59.736;30.568;2023-12-14T00:55:14;100781.00;;;-2.40
73937;BMP180;59249;59.736;30.568;2023-12-14T00:57:49;100775.00;;;-2.50
73937;BMP180;59249;59.736;30.568;2023-12-14T01:00:25;100778.00;;;-2.50
73937;BMP180;59249;59.736;30.568;2023-12-14T01:02:58;100782.00;;;-2.50
73937;BMP180;59249;59.736;30.568;2023-12-14T01:05:36;100777.00;;;-2.50
73937;BMP180;59249;59.736;30.568;2023-12-14T01:08:08;100777.00;;;-2.50
73937;BMP180;59249;59.736;30.568;2023-12-14T01:10:37;100781.00;;;-2.50
73937;BMP180;59249;59.736;30.568;2023-12-14T01:13:08;100775.00;;;-2.50
73937;BMP180;59249;59.736;30.568;2023-12-14T01:15:37;100787.00;;;-2.60
73937;BMP180;59249;59.736;30.568;2023-12-14T01:18:14;100785.00;;;-2.50
73937;BMP180;59249;59.736;30.568;2023-12-14T01:20:45;100791.00;;;-2.50
73937;BMP180;59249;59.736;30.568;2023-12-14T01:23:20;100789.00;;;-2.50
73937;BMP180;59249;59.736;30.568;2023-12-14T01:25:49;100789.00;;;-2.50
73937;BMP180;59249;59.736;30.568;2023-12-14T01:28:18;100790.00;;;-2.50
73937;BMP180;59249;59.736;30.568;2023-12-14T01:30:47;100792.00;;;-2.50
73937;BMP180;59249;59.736;30.568;2023-12-14T01:33:18;100797.00;;;-2.50
73937;BMP180;59249;59.736;30.568;2023-12-14T01:36:02;100794.00;;;-2.50
73937;BMP180;59249;59.736;30.568;2023-12-14T01:38:32;100797.00;;;-2.50
73937;BMP180;59249;59.736;30.568;2023-12-14T01:41:02;100791.00;;;-2.50
73937;BMP180;59249;59.736;30.568;2023-12-14T01:43:36;100797.00;;;-2.50
73937;BMP180;59249;59.736;30.568;2023-12-14T01:46:08;100795.00;;;-2.50
73937;BMP180;59249;59.736;30.568;2023-12-14T01:48:39;100797.00;;;-2.60
73937;BMP180;59249;59.736;30.568;2023-12-14T01:51:09;100798.00;;;-2.60
73937;BMP180;59249;59.736;30.568;2023-12-14T01:53:39;100798.00;;;-2.60
73937;BMP180;59249;59.736;30.568;2023-12-14T01:56:11;100793.00;;;-2.60
73937;BMP180;59249;59.736;30.568;2023-12-14T01:58:44;100790.00;;;-2.50
73937;BMP180;59249;59.736;30.568;2023-12-14T02:01:18;100797.00;;;-2.60
73937;BMP180;59249;59.736;30.568;2023-12-14T02:03:55;100782.00;;;-2.70
73937;BMP180;59249;59.736;30.568;2023-12-14T02:06:28;100789.00;;;-2.70
73937;BMP180;59249;59.736;30.568;2023-12-14T02:09:02;100775.00;;;-2.70
73937;BMP180;59249;59.736;30.568;2023-12-14T02:11:32;100787.00;;;-2.70
73937;BMP180;59249;59.736;30.568;2023-12-14T02:14:13;100785.00;;;-2.70
73937;BMP180;59249;59.736;30.568;2023-12-14T02:16:44;100779.00;;;-2.70
73937;BMP180;59249;59.736;30.568;2023-12-14T02:19:17;100783.00;;;-2.70
73937;BMP180;59249;59.736;30.568;2023-12-14T02:21:47;100792.00;;;-2.70
73937;BMP180;59249;59.736;30.568;2023-12-14T02:24:18;100783.00;;;-2.70
73937;BMP180;59249;59.736;30.568;2023-12-14T02:26:48;100782.00;;;-2.70
73937;BMP180;59249;59.736;30.568;2023-12-14T02:29:30;100782.00;;;-2.70
73937;BMP180;59249;59.736;30.568;2023-12-14T02:32:00;100784.00;;;-2.70
73937;BMP180;59249;59.736;30.568;2023-12-14T02:34:34;100792.00;;;-2.70
73937;BMP180;59249;59.736;30.568;2023-12-14T02:37:07;100781.00;;;-2.80
73937;BMP180;59249;59.736;30.568;2023-12-14T02:39:40;100784.00;;;-2.80
73937;BMP180;59249;59.736;30.568;2023-12-14T02:42:14;100793.00;;;-2.80
73937;BMP180;59249;59.736;30.568;2023-12-14T02:44:43;100789.00;;;-2.80
73937;BMP180;59249;59.736;30.568;2023-12-14T02:47:14;100797.00;;;-2.70
73937;BMP180;59249;59.736;30.568;2023-12-14T02:49:58;100789.00;;;-2.80
73937;BMP180;59249;59.736;30.568;2023-12-14T02:52:32;100785.00;;;-2.80
73937;BMP180;59249;59.736;30.568;2023-12-14T02:55:12;100791.00;;;-2.80
73937;BMP180;59249;59.736;30.568;2023-12-14T02:57:41;100792.00;;;-2.80
73937;BMP180;59249;59.736;30.568;2023-12-14T03:00:13;100797.00;;;-2.80
73937;BMP180;59249;59.736;30.568;2023-12-14T03:02:42;100787.00;;;-2.90
73937;BMP180;59249;59.736;30.568;2023-12-14T03:05:12;100799.00;;;-2.90
73937;BMP180;59249;59.736;30.568;2023-12-14T03:07:43;100788.00;;;-2.90
73937;BMP180;59249;59.736;30.568;2023-12-14T03:10:13;100791.00;;;-2.90
73937;BMP180;59249;59.736;30.568;2023-12-14T03:12:42;100796.00;;;-3.00
73937;BMP180;59249;59.736;30.568;2023-12-14T03:15:11;100799.00;;;-3.00
73937;BMP180;59249;59.736;30.568;2023-12-14T03:17:40;100803.00;;;-3.10
73937;BMP180;59249;59.736;30.568;2023-12-14T03:20:10;100811.00;;;-3.10
73937;BMP180;59249;59.736;30.568;2023-12-14T03:22:41;100806.00;;;-3.10
73937;BMP180;59249;59.736;30.568;2023-12-14T03:25:12;100811.00;;;-3.10
73937;BMP180;59249;59.736;30.568;2023-12-14T03:27:41;100798.00;;;-3.00
73937;BMP180;59249;59.736;30.568;2023-12-14T03:30:11;100808.00;;;-3.00
73937;BMP180;59249;59.736;30.568;2023-12-14T03:32:40;100803.00;;;-3.00
73937;BMP180;59249;59.736;30.568;2023-12-14T03:35:10;100800.00;;;-3.10
73937;BMP180;59249;59.736;30.568;2023-12-14T03:37:40;100797.00;;;-3.10
73937;BMP180;59249;59.736;30.568;2023-12-14T03:40:10;100803.00;;;-3.10
73937;BMP180;59249;59.736;30.568;2023-12-14T03:42:40;100809.00;;;-3.10
73937;BMP180;59249;59.736;30.568;2023-12-14T03:45:10;100807.00;;;-3.20
73937;BMP180;59249;59.736;30.568;2023-12-14T03:47:40;100807.00;;;-3.20
73937;BMP180;59249;59.736;30.568;2023-12-14T03:50:11;100806.00;;;-3.20
73937;BMP180;59249;59.736;30.568;2023-12-14T03:52:43;100809.00;;;-3.10
73937;BMP180;59249;59.736;30.568;2023-12-14T03:55:18;100805.00;;;-3.20
73937;BMP180;59249;59.736;30.568;2023-12-14T03:57:51;100804.00;;;-3.20
73937;BMP180;59249;59.736;30.568;2023-12-14T04:00:21;100813.00;;;-3.20
73937;BMP180;59249;59.736;30.568;2023-12-14T04:02:51;100806.00;;;-3.20
73937;BMP180;59249;59.736;30.568;2023-12-14T04:05:22;100807.00;;;-3.20
73937;BMP180;59249;59.736;30.568;2023-12-14T04:07:52;100816.00;;;-3.20
73937;BMP180;59249;59.736;30.568;2023-12-14T04:10:28;100810.00;;;-3.20
73937;BMP180;59249;59.736;30.568;2023-12-14T04:13:03;100809.00;;;-3.20
73937;BMP180;59249;59.736;30.568;2023-12-14T04:15:35;100812.00;;;-3.20
73937;BMP180;59249;59.736;30.568;2023-12-14T04:18:07;100818.00;;;-3.20
73937;BMP180;59249;59.736;30.568;2023-12-14T04:20:36;100811.00;;;-3.20
73937;BMP180;59249;59.736;30.568;2023-12-14T04:23:06;100820.00;;;-3.30
73937;BMP180;59249;59.736;30.568;2023-12-14T04:25:36;100829.00;;;-3.30
73937;BMP180;59249;59.736;30.568;2023-12-14T04:28:07;100831.00;;;-3.20
73937;BMP180;59249;59.736;30.568;2023-12-14T04:30:38;100822.00;;;-3.30
73937;BMP180;59249;59.736;30.568;2023-12-14T04:33:10;100824.00;;;-3.20
73937;BMP180;59249;59.736;30.568;2023-12-14T04:35:40;100828.00;;;-3.20
73937;BMP180;59249;59.736;30.568;2023-12-14T04:38:09;100828.00;;;-3.20
73937;BMP180;59249;59.736;30.568;2023-12-14T04:40:41;100839.00;;;-3.30
73937;BMP180;59249;59.736;30.568;2023-12-14T04:43:12;100834.00;;;-3.20
73937;BMP180;59249;59.736;30.568;2023-12-14T04:45:41;100834.00;;;-3.30
73937;BMP180;59249;59.736;30.568;2023-12-14T04:48:10;100830.00;;;-3.30
73937;BMP180;59249;59.736;30.568;2023-12-14T04:50:39;100826.00;;;-3.30
73937;BMP180;59249;59.736;30.568;2023-12-14T04:53:08;100833.00;;;-3.30
73937;BMP180;59249;59.736;30.568;2023-12-14T04:55:37;100830.00;;;-3.30
73937;BMP180;59249;59.736;30.568;2023-12-14T04:58:08;100832.00;;;-3.40
73937;BMP180;59249;59.736;30.568;2023-12-14T05:00:40;100836.00;;;-3.30
73937;BMP180;59249;59.736;30.568;2023-12-14T05:03:09;100844.00;;;-3.30
73937;BMP180;59249;59.736;30.568;2023-12-14T05:05:38;100839.00;;;-3.40
73937;BMP180;59249;59.736;30.568;2023-12-14T05:08:08;100835.00;;;-3.40
73937;BMP180;59249;59.736;30.568;2023-12-14T05:10:39;100839.00;;;-3.40
73937;BMP180;59249;59.736;30.568;2023-12-14T05:13:09;100837.00;;;-3.40
73937;BMP180;59249;59.736;30.568;2023-12-14T05:15:38;100827.00;;;-3.50
73937;BMP180;59249;59.736;30.568;2023-12-14T05:18:19;100837.00;;;-3.50
73937;BMP180;59249;59.736;30.568;2023-12-14T05:20:59;100839.00;;;-3.50
73937;BMP180;59249;59.736;30.568;2023-12-14T05:23:30;100838.00;;;-3.50
73937;BMP180;59249;59.736;30.568;2023-12-14T05:26:00;100835.00;;;-3.50
73937;BMP180;59249;59.736;30.568;2023-12-14T05:28:29;100843.00;;;-3.50
73937;BMP180;59249;59.736;30.568;2023-12-14T05:31:03;100853.00;;;-3.50
73937;BMP180;59249;59.736;30.568;2023-12-14T05:33:36;100843.00;;;-3.50
73937;BMP180;59249;59.736;30.568;2023-12-14T05:36:06;100850.00;;;-3.60
73937;BMP180;59249;59.736;30.568;2023-12-14T05:38:39;100856.00;;;-3.50
73937;BMP180;59249;59.736;30.568;2023-12-14T05:41:09;100849.00;;;-3.50
73937;BMP180;59249;59.736;30.568;2023-12-14T05:43:38;100846.00;;;-3.60
73937;BMP180;59249;59.736;30.568;2023-12-14T05:46:20;100856.00;;;-3.60
73937;BMP180;59249;59.736;30.568;2023-12-14T05:48:51;100862.00;;;-3.60
73937;BMP180;59249;59.736;30.568;2023-12-14T05:51:28;100864.00;;;-3.60
73937;BMP180;59249;59.736;30.568;2023-12-14T05:53:59;100865.00;;;-3.60
73937;BMP180;59249;59.736;30.568;2023-12-14T05:56:29;100864.00;;;-3.70
73937;BMP180;59249;59.736;30.568;2023-12-14T05:58:58;100871.00;;;-3.60
73937;BMP180;59249;59.736;30.568;2023-12-14T06:01:32;100868.00;;;-3.70
73937;BMP180;59249;59.736;30.568;2023-12-14T06:04:29;100864.00;;;-3.70
73937;BMP180;59249;59.736;30.568;2023-12-14T06:07:00;100877.00;;;-3.70
73937;BMP180;59249;59.736;30.568;2023-12-14T06:09:29;100884.00;;;-3.70
73937;BMP180;59249;59.736;30.568;2023-12-14T06:12:03;100885.00;;;-3.70
73937;BMP180;59249;59.736;30.568;2023-12-14T06:14:36;100888.00;;;-3.70
73937;BMP180;59249;59.736;30.568;2023-12-14T06:17:16;100884.00;;;-3.70
73937;BMP180;59249;59.736;30.568;2023-12-14T06:19:49;100880.00;;;-3.80
73937;BMP180;59249;59.736;30.568;2023-12-14T06:22:18;100893.00;;;-3.80
73937;BMP180;59249;59.736;30.568;2023-12-14T06:24:47;100893.00;;;-3.80
73937;BMP180;59249;59.736;30.568;2023-12-14T06:27:16;100888.00;;;-3.80
73937;BMP180;59249;59.736;30.568;2023-12-14T06:29:45;100890.00;;;-3.80
73937;BMP180;59249;59.736;30.568;2023-12-14T06:32:16;100907.00;;;-3.80
73937;BMP180;59249;59.736;30.568;2023-12-14T06:34:45;100895.00;;;-3.80
73937;BMP180;59249;59.736;30.568;2023-12-14T06:37:15;100895.00;;;-3.80
73937;BMP180;59249;59.736;30.568;2023-12-14T06:39:47;100897.00;;;-3.80
73937;BMP180;59249;59.736;30.568;2023-12-14T06:42:24;100896.00;;;-3.70
73937;BMP180;59249;59.736;30.568;2023-12-14T06:45:02;100898.00;;;-3.70
73937;BMP180;59249;59.736;30.568;2023-12-14T06:47:37;100904.00;;;-3.80
73937;BMP180;59249;59.736;30.568;2023-12-14T06:50:10;100902.00;;;-3.80
73937;BMP180;59249;59.736;30.568;2023-12-14T06:52:40;100914.00;;;-3.80
73937;BMP180;59249;59.736;30.568;2023-12-14T06:55:12;100912.00;;;-3.80
73937;BMP180;59249;59.736;30.568;2023-12-14T06:57:44;100906.00;;;-3.80
73937;BMP180;59249;59.736;30.568;2023-12-14T07:00:14;100910.00;;;-3.80
73937;BMP180;59249;59.736;30.568;2023-12-14T07:02:46;100910.00;;;-3.80
73937;BMP180;59249;59.736;30.568;2023-12-14T07:05:15;100918.00;;;-3.70
73937;BMP180;59249;59.736;30.568;2023-12-14T07:07:46;100920.00;;;-3.80
73937;BMP180;59249;59.736;30.568;2023-12-14T07:10:15;100919.00;;;-3.80
73937;BMP180;59249;59.736;30.568;2023-12-14T07:12:46;100920.00;;;-3.90
73937;BMP180;59249;59.736;30.568;2023-12-14T07:15:16;100914.00;;;-3.90
73937;BMP180;59249;59.736;30.568;2023-12-14T07:17:47;100926.00;;;-3.80
73937;BMP180;59249;59.736;30.568;2023-12-14T07:20:16;100928.00;;;-3.80
73937;BMP180;59249;59.736;30.568;2023-12-14T07:22:47;100927.00;;;-3.80
73937;BMP180;59249;59.736;30.568;2023-12-14T07:25:31;100926.00;;;-3.70
73937;BMP180;59249;59.736;30.568;2023-12-14T07:28:00;100931.00;;;-3.70
73937;BMP180;59249;59.736;30.568;2023-12-14T07:30:32;100930.00;;;-3.70
73937;BMP180;59249;59.736;30.568;2023-12-14T07:33:06;100933.00;;;-3.80
73937;BMP180;59249;59.736;30.568;2023-12-14T07:35:42;100944.00;;;-3.80
73937;BMP180;59249;59.736;30.568;2023-12-14T07:38:13;100947.00;;;-3.80
73937;BMP180;59249;59.736;30.568;2023-12-14T07:40:51;100941.00;;;-3.80
73937;BMP180;59249;59.736;30.568;2023-12-14T07:43:20;100933.00;;;-3.80
73937;BMP180;59249;59.736;30.568;2023-12-14T07:46:08;100948.00;;;-3.60
73937;BMP180;59249;59.736;30.568;2023-12-14T07:48:43;100934.00;;;-3.60
73937;BMP180;59249;59.736;30.568;2023-12-14T07:51:17;100946.00;;;-3.60
73937;BMP180;59249;59.736;30.568;2023-12-14T07:53:51;100949.00;;;-3.60
73937;BMP180;59249;59.736;30.568;2023-12-14T07:56:36;100953.00;;;-3.70
73937;BMP180;59249;59.736;30.568;2023-12-14T07:59:09;100954.00;;;-3.60
73937;BMP180;59249;59.736;30.568;2023-12-14T08:01:39;100954.00;;;-3.70
73937;BMP180;59249;59.736;30.568;2023-12-14T08:04:09;100963.00;;;-3.70
73937;BMP180;59249;59.736;30.568;2023-12-14T08:06:38;100969.00;;;-3.60
73937;BMP180;59249;59.736;30.568;2023-12-14T08:09:09;100961.00;;;-3.60
73937;BMP180;59249;59.736;30.568;2023-12-14T08:11:41;100967.00;;;-3.50
73937;BMP180;59249;59.736;30.568;2023-12-14T08:14:10;100963.00;;;-3.50
73937;BMP180;59249;59.736;30.568;2023-12-14T08:16:39;100963.00;;;-3.50
73937;BMP180;59249;59.736;30.568;2023-12-14T08:19:09;100969.00;;;-3.60
73937;BMP180;59249;59.736;30.568;2023-12-14T08:21:40;100965.00;;;-3.50
73937;BMP180;59249;59.736;30.568;2023-12-14T08:24:15;100968.00;;;-3.40
73937;BMP180;59249;59.736;30.568;2023-12-14T08:26:43;100971.00;;;-3.40
73937;BMP180;59249;59.736;30.568;2023-12-14T08:29:12;100964.00;;;-3.30
73937;BMP180;59249;59.736;30.568;2023-12-14T08:31:41;100968.00;;;-3.40
73937;BMP180;59249;59.736;30.568;2023-12-14T08:34:12;100977.00;;;-3.30
73937;BMP180;59249;59.736;30.568;2023-12-14T08:36:41;100982.00;;;-3.20
73937;BMP180;59249;59.736;30.568;2023-12-14T08:39:12;100983.00;;;-3.30
73937;BMP180;59249;59.736;30.568;2023-12-14T08:41:42;100989.00;;;-3.30
73937;BMP180;59249;59.736;30.568;2023-12-14T08:44:26;100991.00;;;-3.20
73937;BMP180;59249;59.736;30.568;2023-12-14T08:46:56;100977.00;;;-3.40
73937;BMP180;59249;59.736;30.568;2023-12-14T08:49:47;100997.00;;;-3.30
73937;BMP180;59249;59.736;30.568;2023-12-14T08:52:23;100997.00;;;-3.30
73937;BMP180;59249;59.736;30.568;2023-12-14T08:54:54;100998.00;;;-3.30
73937;BMP180;59249;59.736;30.568;2023-12-14T08:57:27;100990.00;;;-3.20
73937;BMP180;59249;59.736;30.568;2023-12-14T09:00:08;100995.00;;;-3.20
73937;BMP180;59249;59.736;30.568;2023-12-14T09:02:38;100995.00;;;-3.20
73937;BMP180;59249;59.736;30.568;2023-12-14T09:05:10;100990.00;;;-3.20
73937;BMP180;59249;59.736;30.568;2023-12-14T09:07:43;100991.00;;;-3.20
73937;BMP180;59249;59.736;30.568;2023-12-14T09:10:17;100990.00;;;-3.10
73937;BMP180;59249;59.736;30.568;2023-12-14T09:12:46;100990.00;;;-3.10
73937;BMP180;59249;59.736;30.568;2023-12-14T09:15:17;100989.00;;;-3.10
73937;BMP180;59249;59.736;30.568;2023-12-14T09:17:47;100983.00;;;-3.00
73937;BMP180;59249;59.736;30.568;2023-12-14T09:20:21;100984.00;;;-2.90
73937;BMP180;59249;59.736;30.568;2023-12-14T09:22:58;100982.00;;;-2.80
73937;BMP180;59249;59.736;30.568;2023-12-14T09:25:32;100985.00;;;-2.80
73937;BMP180;59249;59.736;30.568;2023-12-14T09:28:02;100982.00;;;-2.70
73937;BMP180;59249;59.736;30.568;2023-12-14T09:30:31;100981.00;;;-2.70
73937;BMP180;59249;59.736;30.568;2023-12-14T09:33:06;100974.00;;;-2.70
73937;BMP180;59249;59.736;30.568;2023-12-14T09:35:38;100982.00;;;-2.50
73937;BMP180;59249;59.736;30.568;2023-12-14T09:38:08;100980.00;;;-2.60
73937;BMP180;59249;59.736;30.568;2023-12-14T09:40:41;100985.00;;;-2.60
73937;BMP180;59249;59.736;30.568;2023-12-14T09:43:11;100989.00;;;-2.50
73937;BMP180;59249;59.736;30.568;2023-12-14T09:50:55;100993.00;;;-2.60
73937;BMP180;59249;59.736;30.568;2023-12-14T09:53:24;100999.00;;;-2.60
73937;BMP180;59249;59.736;30.568;2023-12-14T09:55:54;100989.00;;;-2.70
73937;BMP180;59249;59.736;30.568;2023-12-14T09:58:24;100991.00;;;-2.60
73937;BMP180;59249;59.736;30.568;2023-12-14T10:00:53;101000.00;;;-2.60
73937;BMP180;59249;59.736;30.568;2023-12-14T10:03:25;100993.00;;;-2.50
73937;BMP180;59249;59.736;30.568;2023-12-14T10:05:58;100995.00;;;-2.40
73937;BMP180;59249;59.736;30.568;2023-12-14T10:08:29;100997.00;;;-2.40
73937;BMP180;59249;59.736;30.568;2023-12-14T10:11:00;101005.00;;;-2.50
73937;BMP180;59249;59.736;30.568;2023-12-14T10:13:38;101002.00;;;-2.50
73937;BMP180;59249;59.736;30.568;2023-12-14T10:53:39;100989.00;;;-3.10
73937;BMP180;59249;59.736;30.568;2023-12-14T10:56:16;100997.00;;;-3.10
73937;BMP180;59249;59.736;30.568;2023-12-14T10:58:49;100997.00;;;-3.20
73937;BMP180;59249;59.736;30.568;2023-12-14T11:01:23;100990.00;;;-3.10
73937;BMP180;59249;59.736;30.568;2023-12-14T11:03:54;100994.00;;;-3.10
73937;BMP180;59249;59.736;30.568;2023-12-14T11:06:29;100997.00;;;-3.00
73937;BMP180;59249;59.736;30.568;2023-12-14T11:09:05;101002.00;;;-3.00
73937;BMP180;59249;59.736;30.568;2023-12-14T11:11:56;101008.00;;;-3.00
73937;BMP180;59249;59.736;30.568;2023-12-14T11:14:27;101003.00;;;-2.90
73937;BMP180;59249;59.736;30.568;2023-12-14T11:17:03;101001.00;;;-2.90
73937;BMP180;59249;59.736;30.568;2023-12-14T11:19:36;101003.00;;;-2.80
73937;BMP180;59249;59.736;30.568;2023-12-14T11:22:12;101005.00;;;-2.80
73937;BMP180;59249;59.736;30.568;2023-12-14T11:25:00;101001.00;;;-2.80
73937;BMP180;59249;59.736;30.568;2023-12-14T11:27:42;100998.00;;;-2.90
73937;BMP180;59249;59.736;30.568;2023-12-14T11:30:26;101003.00;;;-2.90
73937;BMP180;59249;59.736;30.568;2023-12-14T11:33:11;101010.00;;;-2.80
73937;BMP180;59249;59.736;30.568;2023-12-14T11:35:43;101004.00;;;-2.80
73937;BMP180;59249;59.736;30.568;2023-12-14T11:38:12;101009.00;;;-2.80
73937;BMP180;59249;59.736;30.568;2023-12-14T11:40:43;101013.00;;;-2.80
73937;BMP180;59249;59.736;30.568;2023-12-14T11:43:12;101009.00;;;-2.80
73937;BMP180;59249;59.736;30.568;2023-12-14T11:45:42;101017.00;;;-2.80
73937;BMP180;59249;59.736;30.568;2023-12-14T11:48:12;101013.00;;;-2.80
73937;BMP180;59249;59.736;30.568;2023-12-14T11:50:42;101025.00;;;-2.70
73937;BMP180;59249;59.736;30.568;2023-12-14T11:53:12;101031.00;;;-2.80
73937;BMP180;59249;59.736;30.568;2023-12-14T11:55:43;101034.00;;;-2.80
73937;BMP180;59249;59.736;30.568;2023-12-14T11:58:15;101024.00;;;-2.80
73937;BMP180;59249;59.736;30.568;2023-12-14T12:00:45;101031.00;;;-2.90
73937;BMP180;59249;59.736;30.568;2023-12-14T12:03:15;101040.00;;;-2.90
73937;BMP180;59249;59.736;30.568;2023-12-14T12:05:48;101039.00;;;-2.90
73937;BMP180;59249;59.736;30.568;2023-12-14T12:08:19;101044.00;;;-2.90
73937;BMP180;59249;59.736;30.568;2023-12-14T12:10:52;101051.00;;;-2.90
73937;BMP180;59249;59.736;30.568;2023-12-14T12:13:21;101046.00;;;-2.90
73937;BMP180;59249;59.736;30.568;2023-12-14T12:15:50;101053.00;;;-3.00
73937;BMP180;59249;59.736;30.568;2023-12-14T12:18:22;101055.00;;;-3.00
73937;BMP180;59249;59.736;30.568;2023-12-14T12:20:51;101048.00;;;-3.00
73937;BMP180;59249;59.736;30.568;2023-12-14T12:23:20;101054.00;;;-3.00
73937;BMP180;59249;59.736;30.568;2023-12-14T12:25:51;101065.00;;;-3.00
73937;BMP180;59249;59.736;30.568;2023-12-14T12:28:23;101058.00;;;-3.10
73937;BMP180;59249;59.736;30.568;2023-12-14T12:30:52;101062.00;;;-3.00
73937;BMP180;59249;59.736;30.568;2023-12-14T12:33:21;101052.00;;;-3.10
73937;BMP180;59249;59.736;30.568;2023-12-14T12:35:50;101056.00;;;-3.00
73937;BMP180;59249;59.736;30.568;2023-12-14T12:38:19;101066.00;;;-3.00
73937;BMP180;59249;59.736;30.568;2023-12-14T12:40:48;101064.00;;;-3.10
73937;BMP180;59249;59.736;30.568;2023-12-14T12:43:19;101060.00;;;-3.10
73937;BMP180;59249;59.736;30.568;2023-12-14T12:45:48;101057.00;;;-3.20
73937;BMP180;59249;59.736;30.568;2023-12-14T12:48:17;101061.00;;;-3.30
73937;BMP180;59249;59.736;30.568;2023-12-14T12:50:48;101054.00;;;-3.20
73937;BMP180;59249;59.736;30.568;2023-12-14T12:53:18;101063.00;;;-3.30
73937;BMP180;59249;59.736;30.568;2023-12-14T12:55:48;101071.00;;;-3.40
73937;BMP180;59249;59.736;30.568;2023-12-14T12:58:19;101073.00;;;-3.30
73937;BMP180;59249;59.736;30.568;2023-12-14T13:00:48;101076.00;;;-3.30
73937;BMP180;59249;59.736;30.568;2023-12-14T13:03:17;101076.00;;;-3.30
73937;BMP180;59249;59.736;30.568;2023-12-14T13:05:46;101069.00;;;-3.30
73937;BMP180;59249;59.736;30.568;2023-12-14T13:08:17;101073.00;;;-3.30
73937;BMP180;59249;59.736;30.568;2023-12-14T13:10:52;101065.00;;;-3.30
73937;BMP180;59249;59.736;30.568;2023-12-14T13:13:24;101070.00;;;-3.40
73937;BMP180;59249;59.736;30.568;2023-12-14T13:15:59;101069.00;;;-3.30
73937;BMP180;59249;59.736;30.568;2023-12-14T13:18:31;101076.00;;;-3.40
73937;BMP180;59249;59.736;30.568;2023-12-14T13:21:04;101079.00;;;-3.40
73937;BMP180;59249;59.736;30.568;2023-12-14T13:23:36;101077.00;;;-3.40
73937;BMP180;59249;59.736;30.568;2023-12-14T13:26:08;101078.00;;;-3.40
73937;BMP180;59249;59.736;30.568;2023-12-14T13:28:38;101075.00;;;-3.40
73937;BMP180;59249;59.736;30.568;2023-12-14T13:31:20;101072.00;;;-3.40
73937;BMP180;59249;59.736;30.568;2023-12-14T13:34:12;101071.00;;;-3.40
73937;BMP180;59249;59.736;30.568;2023-12-14T13:36:42;101087.00;;;-3.40
73937;BMP180;59249;59.736;30.568;2023-12-14T13:39:14;101082.00;;;-3.40
73937;BMP180;59249;59.736;30.568;2023-12-14T13:41:46;101080.00;;;-3.40
73937;BMP180;59249;59.736;30.568;2023-12-14T13:44:18;101079.00;;;-3.40
73937;BMP180;59249;59.736;30.568;2023-12-14T13:46:48;101079.00;;;-3.40
73937;BMP180;59249;59.736;30.568;2023-12-14T13:49:17;101074.00;;;-3.40
73937;BMP180;59249;59.736;30.568;2023-12-14T13:51:46;101077.00;;;-3.40
73937;BMP180;59249;59.736;30.568;2023-12-14T13:54:15;101064.00;;;-3.40
73937;BMP180;59249;59.736;30.568;2023-12-14T13:56:46;101059.00;;;-3.30
73937;BMP180;59249;59.736;30.568;2023-12-14T13:59:15;101053.00;;;-3.50
73937;BMP180;59249;59.736;30.568;2023-12-14T14:01:47;101051.00;;;-3.40
73937;BMP180;59249;59.736;30.568;2023-12-14T14:04:19;101049.00;;;-3.50
73937;BMP180;59249;59.736;30.568;2023-12-14T14:06:55;101066.00;;;-3.50
73937;BMP180;59249;59.736;30.568;2023-12-14T14:09:25;101061.00;;;-3.50
73937;BMP180;59249;59.736;30.568;2023-12-14T14:12:07;101063.00;;;-3.40
73937;BMP180;59249;59.736;30.568;2023-12-14T14:14:40;101079.00;;;-3.40
73937;BMP180;59249;59.736;30.568;2023-12-14T14:17:09;101085.00;;;-3.40
73937;BMP180;59249;59.736;30.568;2023-12-14T14:19:40;101080.00;;;-3.50
73937;BMP180;59249;59.736;30.568;2023-12-14T14:22:12;101069.00;;;-3.50
73937;BMP180;59249;59.736;30.568;2023-12-14T14:24:42;101067.00;;;-3.40
73937;BMP180;59249;59.736;30.568;2023-12-14T14:27:11;101077.00;;;-3.50
73937;BMP180;59249;59.736;30.568;2023-12-14T14:29:43;101084.00;;;-3.60
73937;BMP180;59249;59.736;30.568;2023-12-14T14:32:14;101081.00;;;-3.60
73937;BMP180;59249;59.736;30.568;2023-12-14T14:34:43;101079.00;;;-3.50
73937;BMP180;59249;59.736;30.568;2023-12-14T14:37:13;101078.00;;;-3.60
73937;BMP180;59249;59.736;30.568;2023-12-14T14:39:49;101086.00;;;-3.60
73937;BMP180;59249;59.736;30.568;2023-12-14T14:42:23;101090.00;;;-3.70
73937;BMP180;59249;59.736;30.568;2023-12-14T14:44:55;101084.00;;;-3.60
73937;BMP180;59249;59.736;30.568;2023-12-14T14:47:26;101090.00;;;-3.70
73937;BMP180;59249;59.736;30.568;2023-12-14T14:49:58;101090.00;;;-3.70
73937;BMP180;59249;59.736;30.568;2023-12-14T14:52:32;101092.00;;;-3.80
73937;BMP180;59249;59.736;30.568;2023-12-14T14:55:04;101093.00;;;-3.70